Time;durP1;ratioP1;P1;durP2;ratioP2;P2;SDS_P1;SDS_P2;PMS_P1;PMS_P2;Temp;Humidity;BMP_temperature;BMP_pressure;BME280_temperature;BME280_humidity;BME280_pressure;Samples;Min_cycle;Max_cycle;Signal;HPM_P1;HPM_P2
2022/10/24 00:02:18;;;;;;;8.70;5.53;;;;;;;13.60;86.30;100080.69;5130056;28;20206;-61
2022/10/24 00:04:45;;;;;;;4.67;4.37;;;;;;;13.64;85.46;100077.09;5130072;28;20552;-61
2022/10/24 00:07:12;;;;;;;6.10;5.40;;;;;;;13.56;85.74;100080.81;5130075;28;20200;-60
2022/10/24 00:09:39;;;;;;;7.53;4.70;;;;;;;13.49;85.82;100080.16;5130279;28;20594;-64
2022/10/24 00:12:07;;;;;;;5.80;4.30;;;;;;;13.41;86.32;100085.63;5129986;28;20605;-64
2022/10/24 00:14:35;;;;;;;5.90;4.47;;;;;;;12.93;87.37;100014.97;5130187;28;20201;-64
2022/10/24 00:17:03;;;;;;;7.17;4.53;;;;;;;13.19;88.15;100071.56;5129096;28;20202;-61
2022/10/24 00:19:30;;;;;;;8.47;5.03;;;;;;;13.12;88.24;100069.97;5130579;28;20683;-61
2022/10/24 00:21:57;;;;;;;5.90;4.80;;;;;;;13.13;87.65;100069.09;5129828;28;20228;-63
2022/10/24 00:24:25;;;;;;;8.50;5.27;;;;;;;13.01;87.31;100062.50;5130234;28;20198;-63
2022/10/24 00:26:51;;;;;;;5.13;4.57;;;;;;;12.96;87.12;100059.19;5129896;27;20225;-63
2022/10/24 00:29:19;;;;;;;6.57;4.63;;;;;;;12.95;86.14;100067.03;5130046;28;20194;-63
2022/10/24 00:31:46;;;;;;;4.17;3.77;;;;;;;12.86;85.60;100064.72;5129573;28;20206;-62
2022/10/24 00:34:14;;;;;;;6.07;4.10;;;;;;;12.87;85.53;100064.63;5130196;27;20202;-59
2022/10/24 00:36:41;;;;;;;4.40;4.00;;;;;;;12.86;85.03;100065.56;5133922;27;20288;-60
2022/10/24 00:39:08;;;;;;;4.53;4.00;;;;;;;12.87;84.61;100061.19;5133716;27;20194;-60
2022/10/24 00:41:38;;;;;;;8.27;3.83;;;;;;;12.88;84.98;100068.97;5133793;27;20193;-61
2022/10/24 00:44:20;;;;;;;4.33;3.70;;;;;;;12.77;84.87;100067.56;5133716;27;20658;-61
2022/10/24 00:46:50;;;;;;;5.40;4.03;;;;;;;12.67;85.70;100074.78;5133651;27;20193;-61
2022/10/24 00:49:21;;;;;;;6.77;4.30;;;;;;;12.58;86.47;100077.66;5133637;27;20216;-61
2022/10/24 00:51:52;;;;;;;4.70;3.83;;;;;;;12.49;86.96;100068.38;5133283;27;20198;-58
2022/10/24 00:54:20;;;;;;;5.77;4.13;;;;;;;12.51;86.83;100070.94;5133570;27;20290;-58
2022/10/24 00:56:56;;;;;;;9.27;4.03;;;;;;;12.51;86.98;100069.19;5133314;27;20193;-63
2022/10/24 00:59:24;;;;;;;4.90;3.77;;;;;;;12.52;86.74;100075.25;5134062;27;20201;-64
2022/10/24 01:01:51;;;;;;;5.40;4.10;;;;;;;12.57;86.79;100057.72;5133316;27;20198;-66
2022/10/24 01:04:20;;;;;;;4.63;4.20;;;;;;;12.64;85.99;100054.88;5133514;27;20204;-63
2022/10/24 01:06:55;;;;;;;9.03;4.70;;;;;;;12.71;85.18;100058.19;5133199;27;20280;-63
2022/10/24 01:09:44;;;;;;;10.20;4.97;;;;;;;12.70;84.67;100056.47;5133123;27;20294;-63
2022/10/24 01:12:26;;;;;;;8.33;4.93;;;;;;;12.64;84.89;100054.06;5133277;27;20216;-63
2022/10/24 01:15:03;;;;;;;5.27;4.77;;;;;;;12.53;85.23;100048.28;5133034;27;20204;-63
2022/10/24 01:17:39;;;;;;;8.13;4.63;;;;;;;12.49;85.58;100047.53;5133094;27;20193;-63
2022/10/24 01:20:40;;;;;;;7.37;5.13;;;;;;;12.38;86.55;100048.72;5132975;27;20599;-63
2022/10/24 01:23:22;;;;;;;5.63;4.87;;;;;;;12.36;86.83;100040.94;5132867;27;20189;-62
2022/10/24 01:26:00;;;;;;;8.10;4.63;;;;;;;12.49;86.00;100054.50;5132802;27;20194;-63
2022/10/24 01:28:32;;;;;;;6.33;4.37;;;;;;;12.40;86.74;100045.19;5132542;27;20603;-63
2022/10/24 01:31:07;;;;;;;5.63;4.17;;;;;;;12.45;86.19;100052.84;5133102;27;20543;-62
2022/10/24 01:33:38;;;;;;;6.30;4.90;;;;;;;12.54;86.45;100060.41;5133258;27;20218;-62
2022/10/24 01:36:10;;;;;;;10.80;4.90;;;;;;;12.57;85.96;100055.13;5132763;27;20285;-64
2022/10/24 01:38:43;;;;;;;5.63;5.00;;;;;;;12.49;85.63;100039.72;5132693;27;20600;-63
2022/10/24 01:41:13;;;;;;;5.97;5.23;;;;;;;12.66;85.18;100062.66;5132549;27;20194;-65
2022/10/24 01:43:44;;;;;;;8.27;5.43;;;;;;;12.63;85.11;100052.34;5132722;27;20194;-65
2022/10/24 01:46:16;;;;;;;7.93;5.33;;;;;;;12.42;85.70;100042.50;5131514;27;20273;-64
2022/10/24 01:48:47;;;;;;;6.00;5.43;;;;;;;12.44;86.15;100061.56;5132571;27;20197;-64
2022/10/24 01:51:17;;;;;;;6.20;5.17;;;;;;;12.43;86.42;100054.63;5132401;27;20201;-64
2022/10/24 01:53:45;;;;;;;7.03;5.63;;;;;;;12.38;86.71;100052.19;5132500;27;20693;-64
2022/10/24 01:56:12;;;;;;;8.83;6.63;;;;;;;12.38;86.79;100048.72;5132388;27;20204;-60
2022/10/24 01:58:39;;;;;;;9.07;6.03;;;;;;;12.23;86.88;100024.81;5132489;27;20579;-62
2022/10/24 02:01:10;;;;;;;11.73;6.80;;;;;;;12.40;86.73;100055.59;5132170;27;20189;-63
2022/10/24 02:03:42;;;;;;;9.83;6.13;;;;;;;12.40;86.90;100058.22;5132075;27;20195;-62
2022/10/24 02:06:13;;;;;;;10.10;6.90;;;;;;;12.34;86.88;100051.41;5131973;27;20204;-62
2022/10/24 02:08:44;;;;;;;10.30;8.33;;;;;;;12.17;87.07;100037.16;5132077;27;20194;-61
2022/10/24 02:11:11;;;;;;;12.27;9.00;;;;;;;12.31;87.25;100066.25;5132039;27;20285;-64
2022/10/24 02:13:45;;;;;;;13.43;8.63;;;;;;;12.29;87.87;100070.66;5132010;27;20236;-64
2022/10/24 02:16:16;;;;;;;11.70;9.27;;;;;;;12.33;87.52;100070.53;5131825;27;20194;-64
2022/10/24 02:18:46;;;;;;;14.73;10.27;;;;;;;12.36;87.71;100070.44;5132198;27;20669;-63
2022/10/24 02:21:24;;;;;;;14.30;10.33;;;;;;;12.49;87.26;100070.09;5131946;27;20201;-65
2022/10/24 02:23:55;;;;;;;18.87;10.80;;;;;;;12.59;86.93;100072.41;5131657;27;20247;-66
2022/10/24 02:26:29;;;;;;;20.83;11.67;;;;;;;12.52;86.51;100065.69;5131613;27;20286;-64
2022/10/24 02:29:00;;;;;;;24.47;15.30;;;;;;;12.56;86.42;100069.88;5131768;27;20216;-65
2022/10/24 02:31:33;;;;;;;31.30;17.37;;;;;;;12.59;86.16;100071.56;5131603;27;20288;-64
2022/10/24 02:34:04;;;;;;;25.73;16.97;;;;;;;12.56;86.06;100071.63;5131590;27;20305;-66
2022/10/24 02:36:33;;;;;;;22.97;15.83;;;;;;;12.48;86.57;100074.47;5131543;27;20200;-66
2022/10/24 02:39:02;;;;;;;25.57;15.17;;;;;;;12.45;86.84;100074.53;5131199;27;20315;-64
2022/10/24 02:41:32;;;;;;;21.90;14.63;;;;;;;12.45;86.97;100065.88;5131521;27;20202;-65
2022/10/24 02:44:02;;;;;;;18.87;13.40;;;;;;;12.55;86.48;100068.19;5131395;27;20578;-65
2022/10/24 02:46:30;;;;;;;19.70;12.43;;;;;;;12.51;86.13;100052.69;5131136;27;20209;-59
2022/10/24 02:49:02;;;;;;;18.17;11.20;;;;;;;12.56;85.74;100063.81;5131284;27;20197;-62
2022/10/24 02:51:32;;;;;;;12.57;10.20;;;;;;;12.45;86.77;100063.25;5131075;27;20204;-62
2022/10/24 02:54:01;;;;;;;12.50;8.97;;;;;;;12.40;87.15;100062.56;5130970;27;20223;-63
2022/10/24 02:56:29;;;;;;;10.83;8.40;;;;;;;12.36;87.57;100066.97;5131185;27;20190;-63
2022/10/24 02:58:56;;;;;;;12.33;7.37;;;;;;;12.36;87.82;100070.44;5131140;27;20804;-67
2022/10/24 03:01:23;;;;;;;11.80;7.53;;;;;;;12.31;88.24;100063.63;5131100;27;20277;-65
2022/10/24 03:03:50;;;;;;;16.60;7.43;;;;;;;12.34;88.50;100071.38;5130770;27;20577;-64
2022/10/24 03:06:19;;;;;;;14.17;6.67;;;;;;;12.26;89.00;100070.72;5130864;27;20202;-63
2022/10/24 03:08:46;;;;;;;9.50;6.60;;;;;;;12.29;89.31;100070.66;5131195;27;20757;-65
2022/10/24 03:11:13;;;;;;;11.70;6.33;;;;;;;12.33;89.18;100070.53;5130840;27;20189;-63
2022/10/24 03:13:40;;;;;;;11.50;6.20;;;;;;;12.33;89.58;100069.66;5130753;27;20217;-64
2022/10/24 03:16:07;;;;;;;18.17;5.93;;;;;;;12.22;90.20;100069.94;5130014;27;20208;-64
2022/10/24 03:18:34;;;;;;;8.80;5.47;;;;;;;12.18;91.18;100064.88;5129671;27;20189;-64
2022/10/24 03:21:01;;;;;;;6.07;5.30;;;;;;;12.27;90.75;100064.63;5130485;27;20226;-66
2022/10/24 03:23:29;;;;;;;10.33;5.53;;;;;;;12.04;91.27;100038.38;5130782;27;20687;-63
2022/10/24 03:25:56;;;;;;;12.70;5.57;;;;;;;12.16;92.12;100058.88;5130684;27;20585;-63
2022/10/24 03:28:23;;;;;;;8.63;5.90;;;;;;;12.13;92.38;100062.41;5130470;27;20613;-64
2022/10/24 03:30:51;;;;;;;8.40;6.30;;;;;;;12.08;92.67;100050.38;5129985;27;20251;-60
2022/10/24 03:33:18;;;;;;;11.50;6.13;;;;;;;12.13;92.85;100062.41;5126188;27;20576;-60
2022/10/24 03:35:45;;;;;;;9.57;5.83;;;;;;;12.12;93.04;100063.28;5129102;27;20236;-61
2022/10/24 03:38:12;;;;;;;9.47;5.90;;;;;;;12.00;93.42;100037.59;5129109;27;20209;-61
2022/10/24 03:40:40;;;;;;;12.63;8.83;;;;;;;12.14;93.70;100064.09;5126522;27;20190;-60
2022/10/24 03:43:07;;;;;;;19.03;11.03;;;;;;;12.15;93.45;100062.34;5139248;27;20724;-60
2022/10/24 03:45:34;;;;;;;24.47;11.73;;;;;;;12.15;93.50;100065.81;5135051;27;20197;-60
2022/10/24 03:48:01;;;;;;;24.90;12.07;;;;;;;12.19;93.68;100067.41;5138354;27;20193;-60
2022/10/24 03:50:28;;;;;;;16.93;11.23;;;;;;;12.21;93.82;100068.25;5130951;27;20216;-60
2022/10/24 03:52:55;;;;;;;25.07;11.77;;;;;;;12.20;93.96;100063.94;5129637;27;20851;-63
2022/10/24 03:55:22;;;;;;;30.60;10.63;;;;;;;12.20;93.55;100048.31;5129901;27;20194;-65
2022/10/24 03:57:51;;;;;;;18.93;11.17;;;;;;;12.26;92.92;100058.56;5128379;27;20219;-65
2022/10/24 04:00:18;;;;;;;20.93;10.47;;;;;;;12.27;92.88;100055.09;5124467;27;20198;-65
2022/10/24 04:02:45;;;;;;;23.87;11.00;;;;;;;12.23;92.95;100043.03;5130059;27;20233;-64
2022/10/24 04:05:13;;;;;;;17.10;10.73;;;;;;;12.31;92.74;100054.09;5129903;28;20186;-65
2022/10/24 04:07:40;;;;;;;20.90;10.20;;;;;;;12.42;91.94;100048.56;5130108;28;20206;-64
2022/10/24 04:10:07;;;;;;;17.80;9.87;;;;;;;12.42;92.53;100051.19;5130508;27;20193;-60
2022/10/24 04:12:34;;;;;;;18.13;10.10;;;;;;;12.40;92.78;100044.34;5134082;27;20202;-60
2022/10/24 04:15:03;;;;;;;17.30;9.17;;;;;;;12.29;92.91;100026.41;5133802;27;20244;-58
2022/10/24 04:17:31;;;;;;;12.40;8.63;;;;;;;12.39;92.76;100037.41;5134406;27;20225;-59
2022/10/24 04:19:58;;;;;;;20.43;9.57;;;;;;;12.53;92.64;100051.75;5134091;27;20633;-60
2022/10/24 04:22:25;;;;;;;20.70;9.33;;;;;;;12.47;92.21;100041.50;5133875;27;20223;-59
2022/10/24 04:24:52;;;;;;;17.93;9.37;;;;;;;12.60;92.53;100049.84;5133410;27;20189;-62
2022/10/24 04:27:18;;;;;;;22.03;9.43;;;;;;;12.71;94.33;100055.59;5125274;27;20226;-56
2022/10/24 04:29:45;;;;;;;16.67;8.00;;;;;;;12.69;92.06;100052.16;5112362;28;20628;-57
2022/10/24 04:32:14;;;;;;;17.40;8.87;;;;;;;12.68;92.00;100056.53;5112295;28;20222;-56
2022/10/24 04:34:41;;;;;;;9.77;7.67;;;;;;;12.67;91.91;100053.94;5131178;27;20741;-63
2022/10/24 04:37:08;;;;;;;22.30;9.30;;;;;;;12.65;91.80;100053.13;5132794;27;20197;-57
2022/10/24 04:39:34;;;;;;;12.73;8.43;;;;;;;12.71;91.80;100052.97;5132133;27;20207;-60
2022/10/24 04:42:01;;;;;;;19.93;9.33;;;;;;;12.86;90.69;100049.94;5133352;27;20229;-60
2022/10/24 04:44:28;;;;;;;15.80;8.20;;;;;;;12.94;90.20;100057.53;5133545;27;20194;-65
2022/10/24 04:46:55;;;;;;;18.97;9.20;;;;;;;12.89;90.69;100047.22;5133564;27;20197;-65
2022/10/24 04:49:24;;;;;;;19.87;8.53;;;;;;;12.81;91.78;100054.41;5133604;27;20200;-64
2022/10/24 04:51:51;;;;;;;17.27;8.40;;;;;;;12.85;91.37;100048.22;5133028;27;20196;-65
2022/10/24 04:54:18;;;;;;;15.07;8.47;;;;;;;12.85;91.45;100049.97;5133330;27;20217;-65
2022/10/24 04:56:44;;;;;;;16.00;8.13;;;;;;;12.75;91.59;100046.78;5133307;27;20202;-65
2022/10/24 04:59:11;;;;;;;17.90;8.77;;;;;;;12.64;91.84;100030.63;5133321;27;20194;-65
2022/10/24 05:01:38;;;;;;;14.67;9.27;;;;;;;12.73;92.39;100054.66;5133704;27;20695;-66
2022/10/24 05:04:05;;;;;;;16.03;8.90;;;;;;;12.78;92.30;100051.03;5133011;27;20284;-66
2022/10/24 05:06:34;;;;;;;17.53;9.33;;;;;;;12.78;92.26;100031.06;5132313;27;20208;-66
2022/10/24 05:09:01;;;;;;;24.43;9.90;;;;;;;13.03;91.30;100055.50;5129192;27;20190;-65
2022/10/24 05:11:28;;;;;;;33.83;10.20;;;;;;;13.41;89.91;100061.31;5132050;27;20593;-66
2022/10/24 05:13:54;;;;;;;23.70;10.03;;;;;;;13.85;86.51;100066.84;5131389;27;20222;-66
2022/10/24 05:16:21;;;;;;;12.07;9.33;;;;;;;14.01;84.79;100066.25;5131909;27;20193;-65
2022/10/24 05:18:48;;;;;;;29.70;11.60;;;;;;;14.03;84.20;100076.66;5132968;27;20582;-60
2022/10/24 05:21:15;;;;;;;23.23;10.47;;;;;;;13.93;84.49;100080.47;5132988;27;20194;-59
2022/10/24 05:23:44;;;;;;;19.00;10.73;;;;;;;13.95;84.92;100076.91;5132883;27;20190;-60
2022/10/24 05:26:11;;;;;;;21.53;11.87;;;;;;;14.15;83.63;100084.91;5132980;27;20713;-60
2022/10/24 05:28:37;;;;;;;16.97;10.13;;;;;;;14.32;83.03;100081.72;5132772;27;20743;-60
2022/10/24 05:31:05;;;;;;;15.30;8.33;;;;;;;14.62;81.05;100089.41;5132232;27;20301;-61
2022/10/24 05:33:32;;;;;;;14.63;7.00;;;;;;;15.22;77.47;100092.38;5131482;27;20245;-60
2022/10/24 05:35:59;;;;;;;6.97;5.33;;;;;;;16.29;70.85;100098.47;5131309;27;20190;-60
2022/10/24 05:38:26;;;;;;;9.07;5.70;;;;;;;17.89;63.56;100088.47;5132334;27;25048;-60
2022/10/24 05:40:54;;;;;;;8.20;5.40;;;;;;;19.71;56.23;100098.94;5131873;27;25081;-60
2022/10/24 05:43:21;;;;;;;11.98;6.53;;;;;;;21.28;49.83;100098.22;5132630;27;20194;-60
2022/10/24 05:45:48;;;;;;;6.85;5.15;;;;;;;22.31;45.88;100107.28;5131337;27;20204;-61
2022/10/24 05:48:16;;;;;;;7.85;4.70;;;;;;;23.20;43.79;100109.03;5127151;27;20225;-61
2022/10/24 05:50:43;;;;;;;10.93;5.15;;;;;;;23.88;41.95;100109.34;5131072;27;20293;-61
2022/10/24 05:53:11;;;;;;;9.73;4.88;;;;;;;24.65;40.08;100112.34;5131508;27;20660;-61
2022/10/24 05:55:39;;;;;;;7.10;4.85;;;;;;;25.42;38.35;100106.19;5131979;27;20222;-61
2022/10/24 05:58:07;;;;;;;9.73;4.95;;;;;;;26.12;36.67;100108.38;5132049;27;20198;-61
2022/10/24 06:00:34;;;;;;;6.72;5.88;;;;;;;26.62;35.69;100119.25;5132615;27;20200;-61
2022/10/24 06:03:01;;;;;;;8.25;5.43;;;;;;;26.80;35.44;100117.66;5130881;27;20273;-61
2022/10/24 06:05:28;;;;;;;11.50;6.32;;;;;;;27.25;34.50;100126.16;5130830;27;20196;-61
2022/10/24 06:07:55;;;;;;;8.90;5.57;;;;;;;27.78;33.72;100124.03;5130885;27;20204;-62
2022/10/24 06:10:23;;;;;;;7.20;5.40;;;;;;;28.39;32.43;100109.56;5131575;27;20204;-61
2022/10/24 06:12:50;;;;;;;8.57;6.18;;;;;;;28.86;31.48;100131.84;5131957;27;20222;-62
2022/10/24 06:15:19;;;;;;;9.20;5.75;;;;;;;29.29;31.04;100139.22;5131913;27;20221;-62
2022/10/24 06:17:46;;;;;;;7.47;6.78;;;;;;;29.65;30.21;100128.63;5131714;27;20194;-61
2022/10/24 06:20:13;;;;;;;12.40;6.93;;;;;;;29.53;30.36;100136.03;5131684;27;20204;-62
2022/10/24 06:22:40;;;;;;;9.68;5.88;;;;;;;29.81;30.39;100126.09;5131806;27;20285;-67
2022/10/24 06:25:08;;;;;;;6.53;5.93;;;;;;;30.29;29.24;100137.28;5131493;27;20440;-68
2022/10/24 06:27:35;;;;;;;10.45;5.80;;;;;;;30.67;28.62;100141.44;5131536;27;20236;-68
2022/10/24 06:30:02;;;;;;;10.30;5.60;;;;;;;30.84;28.54;100139.69;5131521;27;20198;-68
2022/10/24 06:32:30;;;;;;;12.60;6.00;;;;;;;30.88;28.35;100137.53;5130907;27;20197;-62
2022/10/24 06:34:57;;;;;;;8.93;5.75;;;;;;;30.79;28.48;100143.88;5130283;27;20214;-63
2022/10/24 06:37:24;;;;;;;12.57;6.72;;;;;;;30.83;28.37;100145.22;5130378;27;20204;-62
2022/10/24 06:39:51;;;;;;;8.15;6.25;;;;;;;29.23;29.96;100146.00;5130512;27;20194;-62
2022/10/24 06:42:18;;;;;;;10.43;6.15;;;;;;;27.60;32.27;100148.84;5130663;27;20619;-61
2022/10/24 06:44:45;;;;;;;13.35;6.45;;;;;;;26.26;34.05;100133.84;5130671;27;20198;-68
2022/10/24 06:47:12;;;;;;;8.93;6.35;;;;;;;24.83;36.46;100124.22;5130193;27;20194;-68
2022/10/24 06:49:40;;;;;;;10.93;6.93;;;;;;;23.82;38.34;100126.53;5130444;27;20198;-68
2022/10/24 06:52:07;;;;;;;19.70;10.43;;;;;;;22.69;41.05;100128.44;5130155;27;20193;-67
2022/10/24 06:54:35;;;;;;;19.40;8.82;;;;;;;21.88;43.08;100122.50;5130656;27;20217;-67
2022/10/24 06:57:02;;;;;;;20.42;9.25;;;;;;;21.40;44.55;100117.72;5129977;27;20689;-61
2022/10/24 06:59:29;;;;;;;38.15;22.05;;;;;;;20.87;45.72;100114.00;5130139;27;20193;-61
2022/10/24 07:01:57;;;;;;;22.00;12.88;;;;;;;20.71;46.60;100127.28;5130100;27;20204;-60
2022/10/24 07:04:24;;;;;;;20.83;15.85;;;;;;;20.51;47.49;100117.94;5130295;27;20187;-60
2022/10/24 07:06:53;;;;;;;15.57;11.50;;;;;;;20.40;47.92;100119.50;5130144;27;20673;-61
2022/10/24 07:09:20;;;;;;;15.50;8.55;;;;;;;20.47;47.99;100129.59;5130863;27;20691;-60
2022/10/24 07:11:46;;;;;;;11.82;8.63;;;;;;;20.34;48.30;100120.69;5130985;27;20566;-61
2022/10/24 07:14:13;;;;;;;15.57;7.57;;;;;;;20.27;48.77;100124.63;5130392;27;20222;-61
2022/10/24 07:16:40;;;;;;;17.33;8.50;;;;;;;20.25;48.98;100115.97;5131006;27;20209;-61
2022/10/24 07:19:07;;;;;;;12.68;6.68;;;;;;;20.14;49.30;100123.66;5130725;27;20198;-60
2022/10/24 07:21:35;;;;;;;14.35;6.72;;;;;;;20.05;49.75;100113.66;5130893;27;20198;-67
2022/10/24 07:24:04;;;;;;;15.50;7.93;;;;;;;19.92;50.26;100108.25;5130573;27;20205;-60
2022/10/24 07:26:31;;;;;;;11.38;6.72;;;;;;;19.76;50.70;100108.25;5130420;27;20630;-61
2022/10/24 07:29:00;;;;;;;7.13;6.47;;;;;;;19.47;52.01;100096.72;5130423;27;20208;-66
2022/10/24 07:31:31;;;;;;;34.15;8.40;;;;;;;19.57;52.20;100102.34;5130535;27;20204;-66
2022/10/24 07:33:59;;;;;;;8.55;5.53;;;;;;;19.54;52.24;100103.34;5130345;27;20204;-67
2022/10/24 07:36:27;;;;;;;10.95;5.68;;;;;;;19.51;52.44;100103.56;5130780;27;20688;-60
2022/10/24 07:38:56;;;;;;;8.75;5.32;;;;;;;19.27;53.49;100104.03;5130304;27;20287;-60
2022/10/24 07:41:26;;;;;;;16.27;6.13;;;;;;;19.36;53.26;100104.38;5130350;27;20190;-61
2022/10/24 07:43:53;;;;;;;10.52;5.78;;;;;;;19.52;53.33;100107.88;5130024;27;20193;-66
2022/10/24 07:46:21;;;;;;;13.32;5.90;;;;;;;19.40;53.32;100105.91;5130093;27;20285;-66
2022/10/24 07:48:49;;;;;;;12.38;6.13;;;;;;;19.51;53.00;100108.81;5130206;27;20193;-66
2022/10/24 07:51:17;;;;;;;23.45;6.95;;;;;;;19.50;53.09;100115.03;5130282;27;20194;-66
2022/10/24 07:53:43;;;;;;;14.38;6.70;;;;;;;19.41;52.90;100112.84;5130111;27;20205;-66
2022/10/24 07:56:13;;;;;;;7.43;5.32;;;;;;;19.30;53.12;100109.94;5129895;27;20228;-66
2022/10/24 07:58:42;;;;;;;8.70;5.70;;;;;;;19.22;53.43;100109.53;5130281;27;20631;-65
2022/10/24 08:01:12;;;;;;;9.30;6.72;;;;;;;19.32;53.40;100097.56;5129835;27;20617;-67
2022/10/24 08:03:39;;;;;;;8.00;5.55;;;;;;;19.21;53.35;100094.66;5130093;27;20202;-66
2022/10/24 08:06:08;;;;;;;8.30;6.20;;;;;;;19.14;53.15;100088.06;5129814;28;20277;-60
2022/10/24 08:08:35;;;;;;;13.88;5.88;;;;;;;19.23;53.05;100084.91;5130042;28;20205;-59
2022/10/24 08:11:06;;;;;;;8.70;5.35;;;;;;;19.42;52.94;100097.91;5129816;28;20204;-60
2022/10/24 08:13:33;;;;;;;9.18;6.20;;;;;;;19.53;53.02;100093.75;5130159;28;20198;-60
2022/10/24 08:16:02;;;;;;;8.98;5.22;;;;;;;19.55;52.93;100093.69;5129700;28;20724;-61
2022/10/24 08:18:29;;;;;;;16.05;6.45;;;;;;;19.63;52.68;100088.00;5129869;28;20205;-61
2022/10/24 08:21:00;;;;;;;24.08;6.85;;;;;;;19.75;52.42;100089.94;5129701;28;20688;-60
2022/10/24 08:23:27;;;;;;;13.07;6.43;;;;;;;19.84;52.14;100099.94;5129779;28;20198;-60
2022/10/24 08:25:54;;;;;;;16.55;5.85;;;;;;;19.84;52.15;100092.03;5129722;28;20196;-68
2022/10/24 08:28:22;;;;;;;13.05;6.93;;;;;;;19.91;51.76;100096.00;5129742;28;20231;-62
2022/10/24 08:30:56;;;;;;;22.52;15.20;;;;;;;19.97;52.10;100085.13;5130043;27;20200;-61
2022/10/24 08:33:24;;;;;;;27.38;12.20;;;;;;;20.07;51.71;100080.16;5129752;28;20197;-62
2022/10/24 08:35:53;;;;;;;13.27;6.43;;;;;;;19.92;51.86;100079.25;5130116;28;20217;-60
2022/10/24 08:38:19;;;;;;;7.03;4.63;;;;;;;19.94;52.04;100085.28;5130003;28;20729;-60
2022/10/24 08:40:48;;;;;;;6.72;5.15;;;;;;;19.81;52.25;100073.75;5129945;28;20198;-60
2022/10/24 08:43:17;;;;;;;10.52;5.85;;;;;;;19.89;52.41;100079.41;5129556;28;20670;-65
2022/10/24 08:46:01;;;;;;;10.68;5.53;;;;;;;19.99;52.12;100074.47;5129423;28;20204;-64
2022/10/24 08:48:34;;;;;;;5.10;4.20;;;;;;;20.07;52.06;100069.63;5129699;27;20224;-64
2022/10/24 08:51:11;;;;;;;7.90;4.35;;;;;;;20.04;51.59;100049.56;5129620;28;20662;-65
2022/10/24 08:53:40;;;;;;;5.78;4.30;;;;;;;20.23;51.45;100065.97;5129940;28;20185;-65
2022/10/24 08:56:20;;;;;;;7.45;4.57;;;;;;;20.30;51.59;100069.09;5131483;27;20218;-59
2022/10/24 08:58:50;;;;;;;7.43;4.30;;;;;;;20.20;51.63;100058.22;5131599;27;20190;-59
2022/10/24 09:01:28;;;;;;;12.60;8.55;;;;;;;20.25;51.34;100069.34;5132091;27;20255;-59
2022/10/24 09:04:00;;;;;;;9.55;5.10;;;;;;;20.28;50.93;100057.78;5132132;27;20666;-59
2022/10/24 09:06:29;;;;;;;11.05;4.53;;;;;;;20.07;51.65;100048.53;5131923;27;20190;-65
2022/10/24 09:08:58;;;;;;;11.88;5.47;;;;;;;20.22;51.76;100058.97;5131479;27;20289;-66
2022/10/24 09:11:31;;;;;;;7.78;4.75;;;;;;;20.29;51.42;100056.84;5132010;27;20285;-65
2022/10/24 09:14:02;;;;;;;7.32;4.28;;;;;;;20.33;51.05;100045.16;5133007;27;20721;-65
2022/10/24 09:16:29;;;;;;;6.68;4.05;;;;;;;20.36;51.07;100047.66;5132790;27;20228;-65
2022/10/24 09:18:58;;;;;;;8.85;4.35;;;;;;;20.40;51.09;100037.78;5133000;27;20200;-65
2022/10/24 09:21:26;;;;;;;9.65;5.78;;;;;;;20.59;51.00;100046.25;5132928;27;20198;-58
2022/10/24 09:23:53;;;;;;;15.52;6.85;;;;;;;20.71;50.78;100039.38;5132934;27;20196;-65
2022/10/24 09:26:28;;;;;;;11.82;5.78;;;;;;;20.75;50.16;100031.19;5132569;27;20280;-63
2022/10/24 09:28:55;;;;;;;9.02;5.10;;;;;;;20.74;50.29;100029.47;5132693;27;20208;-65
2022/10/24 09:31:26;;;;;;;15.70;4.90;;;;;;;20.77;49.76;100031.91;5132880;27;20247;-65
2022/10/24 09:33:55;;;;;;;7.60;5.13;;;;;;;20.84;49.92;100024.47;5132571;27;20194;-65
2022/10/24 09:36:24;;;;;;;13.57;4.80;;;;;;;20.89;49.84;100025.84;5132526;27;20225;-65
2022/10/24 09:38:51;;;;;;;12.80;6.30;;;;;;;20.92;49.71;100027.47;5132520;27;20205;-66
2022/10/24 09:41:22;;;;;;;15.82;5.43;;;;;;;20.98;49.66;100020.03;5132630;27;20591;-59
2022/10/24 09:43:53;;;;;;;12.30;5.72;;;;;;;20.97;49.67;100015.69;5132501;27;20202;-65
2022/10/24 09:46:22;;;;;;;5.38;4.28;;;;;;;21.08;49.40;100019.44;5132700;27;20225;-65
2022/10/24 09:48:54;;;;;;;12.02;5.10;;;;;;;21.03;49.18;99996.81;5132529;27;20293;-64
2022/10/24 09:51:28;;;;;;;18.17;5.38;;;;;;;21.07;49.75;100002.75;5132481;27;20584;-65
2022/10/24 09:54:20;;;;;;;14.00;6.22;;;;;;;21.17;50.39;99989.78;5132198;27;20193;-64
2022/10/24 09:56:53;;;;;;;19.02;8.85;;;;;;;21.29;49.72;99995.16;5132161;27;20751;-58
2022/10/24 09:59:32;;;;;;;15.45;9.75;;;;;;;21.38;49.62;99988.41;5132350;27;20229;-59
2022/10/24 10:02:18;;;;;;;17.90;10.20;;;;;;;21.48;49.41;99988.66;5132027;27;20193;-58
2022/10/24 10:04:47;;;;;;;6.90;4.35;;;;;;;21.59;48.54;99980.88;5132181;27;20708;-59
2022/10/24 10:07:17;;;;;;;10.05;4.80;;;;;;;;;;5130795;27;20705;-58
2022/10/24 10:09:50;;;;;;;9.93;4.80;;;;;;;21.74;48.16;99975.41;5131959;27;20196;-61
2022/10/24 10:12:31;;;;;;;12.48;4.38;;;;;;;21.83;47.97;99967.78;5132146;27;20197;-60
2022/10/24 10:14:58;;;;;;;9.02;4.55;;;;;;;21.91;47.25;99962.81;5131995;27;20731;-66
2022/10/24 10:17:29;;;;;;;6.82;4.20;;;;;;;21.80;46.80;99937.13;5131788;27;20205;-66
2022/10/24 10:19:58;;;;;;;9.32;4.38;;;;;;;21.98;46.87;99961.47;5131977;27;20200;-66
2022/10/24 10:22:28;;;;;;;12.40;4.53;;;;;;;21.97;47.02;99951.84;5131972;27;20293;-66
2022/10/24 10:24:56;;;;;;;13.90;4.40;;;;;;;21.92;47.06;99954.78;5131532;27;20202;-66
2022/10/24 10:27:26;;;;;;;5.88;4.32;;;;;;;21.91;47.32;99954.91;5131356;27;20229;-65
2022/10/24 10:30:16;;;;;;;12.10;4.65;;;;;;;21.98;46.99;99946.50;5131278;27;20194;-66
2022/10/24 10:32:54;;;;;;;10.65;4.65;;;;;;;22.05;46.89;99947.75;5131738;27;20196;-60
2022/10/24 10:35:24;;;;;;;9.25;4.57;;;;;;;22.13;46.75;99946.38;5131352;27;20263;-66
2022/10/24 10:38:01;;;;;;;11.23;4.93;;;;;;;22.22;46.80;99943.09;5131449;27;20204;-60
2022/10/24 10:40:33;;;;;;;5.85;4.65;;;;;;;22.29;46.59;99936.41;5131421;27;20200;-66
2022/10/24 10:43:20;;;;;;;11.40;4.68;;;;;;;22.53;46.05;99932.03;5131328;27;20221;-66
2022/10/24 10:45:51;;;;;;;7.97;4.70;;;;;;;22.53;46.21;99925.91;5131137;27;20200;-66
2022/10/24 10:48:37;;;;;;;13.43;5.00;;;;;;;22.49;45.99;99925.25;5113266;27;20218;-66
2022/10/24 10:51:11;;;;;;;11.25;4.18;;;;;;;22.54;46.03;99923.16;5109829;28;20228;-66
2022/10/24 10:53:44;;;;;;;6.88;4.20;;;;;;;22.58;45.93;99918.47;5110180;27;20251;-66
2022/10/24 10:56:25;;;;;;;12.80;4.43;;;;;;;22.60;45.94;99911.25;5130362;27;20218;-66
2022/10/24 10:59:01;;;;;;;9.05;4.10;;;;;;;22.63;45.93;99911.06;5123176;27;20202;-65
2022/10/24 11:01:41;;;;;;;10.77;3.95;;;;;;;22.69;45.93;99915.88;5111381;27;20566;-60
2022/10/24 11:04:17;;;;;;;12.52;4.60;;;;;;;22.73;45.63;99906.78;5110205;27;20219;-60
2022/10/24 11:06:51;;;;;;;5.68;4.28;;;;;;;22.77;45.83;99893.25;5109665;28;20633;-60
2022/10/24 11:09:29;;;;;;;11.65;4.00;;;;;;;22.86;45.46;99897.03;5109630;28;20295;-60
2022/10/24 11:12:12;;;;;;;12.48;4.68;;;;;;;22.91;45.68;99894.06;5109535;28;20593;-63
2022/10/24 11:14:42;;;;;;;9.50;6.05;;;;;;;22.93;45.81;99881.53;5109924;28;20222;-60
2022/10/24 11:17:17;;;;;;;6.05;4.50;;;;;;;23.13;44.92;99892.34;5129486;27;20255;-60
2022/10/24 11:19:54;;;;;;;6.93;3.88;;;;;;;23.21;44.85;99890.91;5130540;27;20196;-59
2022/10/24 11:22:26;;;;;;;11.95;3.80;;;;;;;23.26;44.66;99884.31;5129559;27;20197;-60
2022/10/24 11:25:01;;;;;;;10.63;4.65;;;;;;;23.26;44.42;99886.94;5130638;27;20190;-59
2022/10/24 11:27:36;;;;;;;5.03;4.28;;;;;;;23.24;44.65;99880.09;5130488;27;20251;-59
2022/10/24 11:30:12;;;;;;;6.38;4.15;;;;;;;23.24;44.72;99880.09;5130430;27;20695;-60
2022/10/24 11:32:44;;;;;;;10.25;4.70;;;;;;;23.28;44.79;99879.72;5130387;27;20223;-60
2022/10/24 11:35:22;;;;;;;8.30;3.60;;;;;;;23.45;44.10;99862.56;5130245;27;20201;-66